Terminal Aerodrome Forecast
Issued by NWS Pueblo, CO

Home | Current Version | Previous Version | Text Only | Print | Product List | Glossary On
Versions: 1 2 3 4 5 6 7 8 9 10 11 12 13 14
000
FTUS45 KPUB 140939 AAC
TAFPUB
TAF AMD
KPUB 140939Z 1410/1506 02015KT P6SM VCSH SCT025 OVC050
      TEMPO 1410/1412 3SM -SHSN BKN025
     FM141200 01010KT P6SM VCSH SCT020 OVC045
     FM141900 06010KT P6SM BKN060
     FM142100 VRB04KT P6SM SCT100=

USA.gov is the U.S. government's official web portal to all federal, state and local government web resources and services.